JLY7601 SBSP-SBCY
Flight info
| Callsign | JLY7601 |
|---|---|
| Flight time | 1h 54m |
| Altitude | 38000 |
| Route | GERTU UL201 ROBID DCT RODAD UM775 SINIP |
| Aircraft | A20N/M-SDE2E3FGHIRWXY/LB1 |
Departure
| Time | 2026-04-23 00:13 |
|---|---|
| Airport | Congonhas–Deputado Freitas Nobre Airport (SBSP) |
Arrival
| Time | 2026-04-23 02:08 |
|---|---|
| Airport | Várzea Grande–Marechal Rondon International Airport (SBCY) |
| Time | Latitude | Longitude | Altitude | Speed | Heading |
|---|---|---|---|---|---|
| 2026-04-22 23:50 | -23.62691 | -46.65842 | 2615 ft | 0 kts | 237° |
| 2026-04-23 00:05 | -23.62691 | -46.65841 | 2615 ft | 1 kts | 237° |
| 2026-04-23 00:06 | -23.62683 | -46.65828 | 2615 ft | 2 kts | 238° |
| 2026-04-23 00:06 | -23.62676 | -46.65813 | 2615 ft | 2 kts | 269° |
| 2026-04-23 00:06 | -23.62679 | -46.65798 | 2615 ft | 2 kts | 305° |
| 2026-04-23 00:06 | -23.62685 | -46.65791 | 2616 ft | 1 kts | 327° |
| 2026-04-23 00:07 | -23.62691 | -46.65787 | 2616 ft | 0 kts | 328° |
| 2026-04-23 00:10 | -23.62670 | -46.65799 | 2615 ft | 7 kts | 339° |
| 2026-04-23 00:10 | -23.62603 | -46.65817 | 2613 ft | 12 kts | 347° |
| 2026-04-23 00:10 | -23.62515 | -46.65861 | 2611 ft | 15 kts | 327° |
| 2026-04-23 00:11 | -23.62415 | -46.65932 | 2608 ft | 18 kts | 328° |
| 2026-04-23 00:11 | -23.62300 | -46.66010 | 2604 ft | 20 kts | 328° |
| 2026-04-23 00:11 | -23.62203 | -46.66067 | 2601 ft | 16 kts | 331° |
| 2026-04-23 00:11 | -23.62124 | -46.66121 | 2597 ft | 14 kts | 327° |
| 2026-04-23 00:12 | -23.62051 | -46.66136 | 2595 ft | 10 kts | 33° |
| 2026-04-23 00:12 | -23.62043 | -46.66081 | 2595 ft | 7 kts | 136° |
| 2026-04-23 00:12 | -23.62166 | -46.65993 | 2601 ft | 51 kts | 148° |
| 2026-04-23 00:12 | -23.62681 | -46.65638 | 2618 ft | 120 kts | 148° |
| 2026-04-23 00:13 | -23.63526 | -46.65052 | 2811 ft | 155 kts | 147° |
| 2026-04-23 00:13 | -23.64451 | -46.64407 | 3342 ft | 165 kts | 147° |
| 2026-04-23 00:13 | -23.65463 | -46.63708 | 3782 ft | 184 kts | 153° |
| 2026-04-23 00:13 | -23.66761 | -46.63454 | 4261 ft | 202 kts | 185° |
| 2026-04-23 00:14 | -23.68236 | -46.63725 | 4668 ft | 226 kts | 189° |
| 2026-04-23 00:14 | -23.69829 | -46.64043 | 5193 ft | 244 kts | 189° |
| 2026-04-23 00:14 | -23.71575 | -46.64375 | 5749 ft | 262 kts | 188° |
| 2026-04-23 00:14 | -23.73414 | -46.64708 | 6441 ft | 274 kts | 188° |
| 2026-04-23 00:15 | -23.75238 | -46.65315 | 7029 ft | 278 kts | 210° |
| 2026-04-23 00:15 | -23.76618 | -46.66810 | 7382 ft | 283 kts | 239° |
| 2026-04-23 00:15 | -23.77246 | -46.68848 | 7464 ft | 287 kts | 258° |
| 2026-04-23 00:15 | -23.77710 | -46.70952 | 7452 ft | 285 kts | 245° |
| 2026-04-23 00:16 | -23.78645 | -46.72861 | 7462 ft | 284 kts | 238° |
| 2026-04-23 00:16 | -23.79647 | -46.74703 | 7504 ft | 287 kts | 236° |
| 2026-04-23 00:16 | -23.80732 | -46.76557 | 8037 ft | 294 kts | 235° |
| 2026-04-23 00:16 | -23.81839 | -46.78397 | 9006 ft | 292 kts | 234° |
| 2026-04-23 00:17 | -23.82953 | -46.80233 | 9844 ft | 293 kts | 234° |
| 2026-04-23 00:17 | -23.84090 | -46.82093 | 10496 ft | 300 kts | 234° |
| 2026-04-23 00:17 | -23.85267 | -46.84021 | 11035 ft | 311 kts | 234° |
| 2026-04-23 00:17 | -23.86379 | -46.86049 | 11719 ft | 317 kts | 247° |
| 2026-04-23 00:18 | -23.86753 | -46.88432 | 12403 ft | 324 kts | 273° |
| 2026-04-23 00:18 | -23.86168 | -46.90797 | 13113 ft | 328 kts | 296° |
| 2026-04-23 00:18 | -23.85006 | -46.92930 | 13812 ft | 331 kts | 301° |
| 2026-04-23 00:18 | -23.83798 | -46.95063 | 14446 ft | 335 kts | 300° |
| 2026-04-23 00:19 | -23.82571 | -46.97258 | 15075 ft | 339 kts | 300° |
| 2026-04-23 00:19 | -23.81366 | -46.99445 | 15695 ft | 342 kts | 299° |
| 2026-04-23 00:19 | -23.80129 | -47.01707 | 16311 ft | 345 kts | 299° |
| 2026-04-23 00:19 | -23.78898 | -47.03970 | 16882 ft | 349 kts | 298° |
| 2026-04-23 00:20 | -23.77663 | -47.06246 | 17447 ft | 353 kts | 298° |
| 2026-04-23 00:20 | -23.76405 | -47.08561 | 18002 ft | 356 kts | 298° |
| 2026-04-23 00:20 | -23.75095 | -47.10858 | 18574 ft | 359 kts | 306° |
| 2026-04-23 00:20 | -23.73250 | -47.12669 | 19111 ft | 365 kts | 328° |
| 2026-04-23 00:21 | -23.70846 | -47.13643 | 19687 ft | 369 kts | 346° |
| 2026-04-23 00:21 | -23.68321 | -47.14167 | 20235 ft | 371 kts | 347° |
| 2026-04-23 00:21 | -23.65797 | -47.14666 | 20725 ft | 373 kts | 347° |
| 2026-04-23 00:21 | -23.63217 | -47.15199 | 21220 ft | 376 kts | 346° |
| 2026-04-23 00:22 | -23.60653 | -47.15749 | 21703 ft | 378 kts | 345° |
| 2026-04-23 00:22 | -23.58084 | -47.16311 | 22185 ft | 380 kts | 345° |
| 2026-04-23 00:22 | -23.55459 | -47.16887 | 22684 ft | 382 kts | 345° |
| 2026-04-23 00:22 | -23.52861 | -47.17458 | 23170 ft | 385 kts | 345° |
| 2026-04-23 00:23 | -23.50235 | -47.18036 | 23661 ft | 387 kts | 345° |
| 2026-04-23 00:23 | -23.47594 | -47.18617 | 24163 ft | 389 kts | 345° |
| 2026-04-23 00:23 | -23.44905 | -47.19206 | 24666 ft | 391 kts | 345° |
| 2026-04-23 00:23 | -23.42244 | -47.19789 | 25151 ft | 393 kts | 345° |
| 2026-04-23 00:24 | -23.39528 | -47.20384 | 25555 ft | 398 kts | 345° |
| 2026-04-23 00:24 | -23.36827 | -47.20977 | 25931 ft | 403 kts | 345° |
| 2026-04-23 00:24 | -23.34042 | -47.21586 | 26367 ft | 406 kts | 345° |
| 2026-04-23 00:24 | -23.31258 | -47.22194 | 26817 ft | 408 kts | 345° |
| 2026-04-23 00:25 | -23.28480 | -47.22799 | 27264 ft | 410 kts | 345° |
| 2026-04-23 00:25 | -23.25690 | -47.23407 | 27694 ft | 412 kts | 345° |
| 2026-04-23 00:25 | -23.22875 | -47.24022 | 28116 ft | 414 kts | 345° |
| 2026-04-23 00:25 | -23.20046 | -47.24638 | 28509 ft | 416 kts | 345° |
| 2026-04-23 00:26 | -23.17173 | -47.25265 | 28903 ft | 418 kts | 345° |
| 2026-04-23 00:26 | -23.14327 | -47.25883 | 29278 ft | 421 kts | 345° |
| 2026-04-23 00:26 | -23.11448 | -47.26510 | 29623 ft | 424 kts | 345° |
| 2026-04-23 00:26 | -23.08520 | -47.27146 | 29973 ft | 426 kts | 345° |
| 2026-04-23 00:27 | -23.05609 | -47.27781 | 30312 ft | 429 kts | 345° |
| 2026-04-23 00:27 | -23.02679 | -47.28418 | 30645 ft | 431 kts | 345° |
| 2026-04-23 00:27 | -22.99719 | -47.29061 | 30967 ft | 433 kts | 345° |
| 2026-04-23 00:27 | -22.96756 | -47.29704 | 31278 ft | 435 kts | 345° |
| 2026-04-23 00:28 | -22.93798 | -47.30346 | 31585 ft | 438 kts | 345° |
| 2026-04-23 00:28 | -22.90791 | -47.30998 | 31876 ft | 440 kts | 345° |
| 2026-04-23 00:28 | -22.87767 | -47.31655 | 32161 ft | 442 kts | 345° |
| 2026-04-23 00:28 | -22.84748 | -47.32309 | 32444 ft | 444 kts | 345° |
| 2026-04-23 00:29 | -22.81680 | -47.32973 | 32721 ft | 445 kts | 345° |
| 2026-04-23 00:29 | -22.78645 | -47.33631 | 33041 ft | 446 kts | 345° |
| 2026-04-23 00:29 | -22.75617 | -47.34293 | 33433 ft | 445 kts | 344° |
| 2026-04-23 00:29 | -22.72599 | -47.35128 | 33849 ft | 441 kts | 340° |
| 2026-04-23 00:30 | -22.69706 | -47.36187 | 34261 ft | 437 kts | 335° |
| 2026-04-23 00:30 | -22.66902 | -47.37483 | 34627 ft | 434 kts | 330° |
| 2026-04-23 00:30 | -22.64234 | -47.38988 | 34965 ft | 432 kts | 326° |
| 2026-04-23 00:30 | -22.61707 | -47.40688 | 35290 ft | 429 kts | 322° |
| 2026-04-23 00:31 | -22.59300 | -47.42584 | 35595 ft | 427 kts | 319° |
| 2026-04-23 00:31 | -22.56954 | -47.44551 | 35893 ft | 427 kts | 318° |
| 2026-04-23 00:31 | -22.54628 | -47.46514 | 36167 ft | 426 kts | 318° |
| 2026-04-23 00:31 | -22.52275 | -47.48495 | 36425 ft | 427 kts | 318° |
| 2026-04-23 00:32 | -22.49909 | -47.50476 | 36685 ft | 426 kts | 318° |
| 2026-04-23 00:32 | -22.47588 | -47.52418 | 36934 ft | 426 kts | 318° |
| 2026-04-23 00:32 | -22.45231 | -47.54398 | 37149 ft | 426 kts | 317° |
| 2026-04-23 00:32 | -22.42967 | -47.56470 | 37316 ft | 426 kts | 314° |
| 2026-04-23 00:33 | -22.40812 | -47.58682 | 37471 ft | 426 kts | 311° |
| 2026-04-23 00:33 | -22.38750 | -47.60972 | 37642 ft | 427 kts | 310° |
| 2026-04-23 00:33 | -22.36690 | -47.63276 | 37815 ft | 427 kts | 310° |
| 2026-04-23 00:33 | -22.34602 | -47.65610 | 37975 ft | 428 kts | 310° |
| 2026-04-23 00:34 | -22.32552 | -47.67900 | 38114 ft | 430 kts | 310° |
| 2026-04-23 00:34 | -22.28354 | -47.72585 | 38144 ft | 432 kts | 310° |
| 2026-04-23 00:35 | -22.24172 | -47.77246 | 38155 ft | 433 kts | 310° |
| 2026-04-23 00:35 | -22.20000 | -47.81890 | 38159 ft | 433 kts | 310° |
| 2026-04-23 00:36 | -22.15800 | -47.86561 | 38160 ft | 432 kts | 310° |
| 2026-04-23 00:36 | -22.11602 | -47.91225 | 38159 ft | 432 kts | 310° |
| 2026-04-23 00:37 | -22.07419 | -47.95869 | 38157 ft | 433 kts | 311° |
| 2026-04-23 00:37 | -22.03239 | -48.00504 | 38152 ft | 433 kts | 310° |
| 2026-04-23 00:38 | -21.99032 | -48.05168 | 38146 ft | 433 kts | 311° |
| 2026-04-23 00:38 | -21.94846 | -48.09804 | 38137 ft | 433 kts | 311° |
| 2026-04-23 00:39 | -21.90627 | -48.14471 | 38130 ft | 433 kts | 311° |
| 2026-04-23 00:39 | -21.86417 | -48.19122 | 38125 ft | 433 kts | 311° |
| 2026-04-23 00:40 | -21.82215 | -48.23758 | 38121 ft | 433 kts | 311° |
| 2026-04-23 00:40 | -21.78011 | -48.28390 | 38120 ft | 432 kts | 311° |
| 2026-04-23 00:41 | -21.73769 | -48.33063 | 38114 ft | 432 kts | 311° |
| 2026-04-23 00:41 | -21.69574 | -48.37680 | 38110 ft | 432 kts | 311° |
| 2026-04-23 00:42 | -21.65383 | -48.42289 | 38108 ft | 432 kts | 311° |
| 2026-04-23 00:42 | -21.61166 | -48.46924 | 38106 ft | 432 kts | 311° |
| 2026-04-23 00:43 | -21.56966 | -48.51536 | 38098 ft | 432 kts | 311° |
| 2026-04-23 00:43 | -21.52753 | -48.56157 | 38098 ft | 433 kts | 311° |
| 2026-04-23 00:44 | -21.48558 | -48.60754 | 38098 ft | 433 kts | 311° |
| 2026-04-23 00:44 | -21.44325 | -48.65389 | 38097 ft | 432 kts | 311° |
| 2026-04-23 00:45 | -21.40122 | -48.69988 | 38093 ft | 432 kts | 311° |
| 2026-04-23 00:45 | -21.35889 | -48.74616 | 38092 ft | 432 kts | 311° |
| 2026-04-23 00:46 | -21.31657 | -48.79239 | 38091 ft | 433 kts | 311° |
| 2026-04-23 00:46 | -21.27426 | -48.83858 | 38090 ft | 433 kts | 312° |
| 2026-04-23 00:47 | -21.23210 | -48.88455 | 38084 ft | 433 kts | 312° |
| 2026-04-23 00:47 | -21.18974 | -48.93070 | 38085 ft | 434 kts | 311° |
| 2026-04-23 00:48 | -21.14712 | -48.97716 | 38082 ft | 434 kts | 312° |
| 2026-04-23 00:48 | -21.10486 | -49.02320 | 38080 ft | 435 kts | 312° |
| 2026-04-23 00:49 | -21.06217 | -49.06967 | 38083 ft | 434 kts | 312° |
| 2026-04-23 00:49 | -21.01991 | -49.11564 | 38080 ft | 434 kts | 312° |
| 2026-04-23 00:50 | -20.97731 | -49.16194 | 38078 ft | 434 kts | 311° |
| 2026-04-23 00:50 | -20.93512 | -49.20777 | 38079 ft | 435 kts | 311° |
| 2026-04-23 00:51 | -20.89267 | -49.25383 | 38084 ft | 434 kts | 311° |
| 2026-04-23 00:51 | -20.85025 | -49.29983 | 38092 ft | 434 kts | 311° |
| 2026-04-23 00:52 | -20.80749 | -49.34616 | 38098 ft | 435 kts | 312° |
| 2026-04-23 00:52 | -20.76506 | -49.39209 | 38098 ft | 435 kts | 312° |
| 2026-04-23 00:53 | -20.72257 | -49.43803 | 38098 ft | 435 kts | 312° |
| 2026-04-23 00:53 | -20.68015 | -49.48386 | 38094 ft | 434 kts | 312° |
| 2026-04-23 00:54 | -20.63742 | -49.53001 | 38082 ft | 434 kts | 312° |
| 2026-04-23 00:54 | -20.59517 | -49.57559 | 38079 ft | 434 kts | 312° |
| 2026-04-23 00:55 | -20.55257 | -49.62148 | 38075 ft | 434 kts | 312° |
| 2026-04-23 00:55 | -20.51019 | -49.66712 | 38073 ft | 433 kts | 312° |
| 2026-04-23 00:56 | -20.46778 | -49.71276 | 38075 ft | 433 kts | 312° |
| 2026-04-23 00:56 | -20.42539 | -49.75834 | 38077 ft | 433 kts | 312° |
| 2026-04-23 00:57 | -20.38304 | -49.80383 | 38075 ft | 433 kts | 312° |
| 2026-04-23 00:57 | -20.34069 | -49.84930 | 38072 ft | 433 kts | 313° |
| 2026-04-23 00:58 | -20.29826 | -49.89480 | 38072 ft | 432 kts | 313° |
| 2026-04-23 00:58 | -20.25594 | -49.94015 | 38069 ft | 433 kts | 313° |
| 2026-04-23 00:59 | -20.21355 | -49.98553 | 38066 ft | 431 kts | 313° |
| 2026-04-23 00:59 | -20.17116 | -50.03088 | 38068 ft | 430 kts | 313° |
| 2026-04-23 01:00 | -20.12913 | -50.07582 | 38069 ft | 430 kts | 313° |
| 2026-04-23 01:00 | -20.08668 | -50.12118 | 38068 ft | 430 kts | 313° |
| 2026-04-23 01:01 | -20.04465 | -50.16607 | 38067 ft | 431 kts | 313° |
| 2026-04-23 01:01 | -20.00222 | -50.21140 | 38067 ft | 431 kts | 311° |
| 2026-04-23 01:02 | -19.96226 | -50.25885 | 38060 ft | 431 kts | 309° |
| 2026-04-23 01:02 | -19.92283 | -50.30706 | 38064 ft | 431 kts | 309° |
| 2026-04-23 01:03 | -19.88368 | -50.35490 | 38064 ft | 430 kts | 309° |
| 2026-04-23 01:03 | -19.84438 | -50.40287 | 38061 ft | 430 kts | 309° |
| 2026-04-23 01:04 | -19.80506 | -50.45081 | 38060 ft | 431 kts | 309° |
| 2026-04-23 01:04 | -19.74610 | -50.52259 | 38058 ft | 431 kts | 309° |
| 2026-04-23 01:05 | -19.70678 | -50.57045 | 38055 ft | 432 kts | 309° |
| 2026-04-23 01:05 | -19.66732 | -50.61840 | 38060 ft | 432 kts | 309° |
| 2026-04-23 01:06 | -19.62781 | -50.66640 | 38059 ft | 432 kts | 309° |
| 2026-04-23 01:06 | -19.58826 | -50.71442 | 38057 ft | 432 kts | 309° |
| 2026-04-23 01:07 | -19.54854 | -50.76257 | 38056 ft | 432 kts | 309° |
| 2026-04-23 01:07 | -19.50905 | -50.81043 | 38054 ft | 432 kts | 310° |
| 2026-04-23 01:08 | -19.46945 | -50.85837 | 38055 ft | 431 kts | 309° |
| 2026-04-23 01:08 | -19.43008 | -50.90599 | 38056 ft | 431 kts | 310° |
| 2026-04-23 01:09 | -19.39035 | -50.95403 | 38059 ft | 432 kts | 310° |
| 2026-04-23 01:09 | -19.35070 | -51.00193 | 38060 ft | 432 kts | 310° |
| 2026-04-23 01:10 | -19.31132 | -51.04945 | 38061 ft | 432 kts | 310° |
| 2026-04-23 01:10 | -19.27157 | -51.09737 | 38059 ft | 432 kts | 310° |
| 2026-04-23 01:11 | -19.23195 | -51.14512 | 38059 ft | 432 kts | 310° |
| 2026-04-23 01:11 | -19.19245 | -51.19267 | 38058 ft | 432 kts | 310° |
| 2026-04-23 01:12 | -19.15263 | -51.24056 | 38058 ft | 432 kts | 310° |
| 2026-04-23 01:12 | -19.11305 | -51.28815 | 38058 ft | 432 kts | 310° |
| 2026-04-23 01:13 | -19.07339 | -51.33579 | 38062 ft | 432 kts | 310° |
| 2026-04-23 01:13 | -19.03363 | -51.38351 | 38065 ft | 432 kts | 310° |
| 2026-04-23 01:14 | -18.99388 | -51.43117 | 38068 ft | 432 kts | 310° |
| 2026-04-23 01:14 | -18.95422 | -51.47867 | 38068 ft | 432 kts | 310° |
| 2026-04-23 01:15 | -18.91444 | -51.52631 | 38064 ft | 432 kts | 310° |
| 2026-04-23 01:15 | -18.87466 | -51.57391 | 38061 ft | 433 kts | 310° |
| 2026-04-23 01:16 | -18.83474 | -51.62165 | 38066 ft | 433 kts | 310° |
| 2026-04-23 01:16 | -18.79482 | -51.66931 | 38062 ft | 433 kts | 310° |
| 2026-04-23 01:17 | -18.75527 | -51.71653 | 38066 ft | 433 kts | 310° |
| 2026-04-23 01:17 | -18.71541 | -51.76407 | 38068 ft | 433 kts | 310° |
| 2026-04-23 01:18 | -18.67545 | -51.81172 | 38070 ft | 434 kts | 310° |
| 2026-04-23 01:18 | -18.63545 | -51.85934 | 38072 ft | 434 kts | 310° |
| 2026-04-23 01:19 | -18.59566 | -51.90669 | 38080 ft | 433 kts | 310° |
| 2026-04-23 01:19 | -18.55561 | -51.95431 | 38087 ft | 433 kts | 310° |
| 2026-04-23 01:20 | -18.51579 | -52.00162 | 38098 ft | 433 kts | 310° |
| 2026-04-23 01:20 | -18.47555 | -52.04939 | 38102 ft | 434 kts | 310° |
| 2026-04-23 01:21 | -18.43553 | -52.09688 | 38104 ft | 433 kts | 310° |
| 2026-04-23 01:21 | -18.39563 | -52.14416 | 38101 ft | 433 kts | 310° |
| 2026-04-23 01:22 | -18.35555 | -52.19166 | 38103 ft | 434 kts | 310° |
| 2026-04-23 01:22 | -18.31559 | -52.23895 | 38102 ft | 433 kts | 310° |
| 2026-04-23 01:23 | -18.27550 | -52.28636 | 38104 ft | 432 kts | 310° |
| 2026-04-23 01:23 | -18.23571 | -52.33340 | 38109 ft | 432 kts | 310° |
| 2026-04-23 01:24 | -18.19564 | -52.38072 | 38112 ft | 431 kts | 310° |
| 2026-04-23 01:24 | -18.15590 | -52.42761 | 38112 ft | 430 kts | 310° |
| 2026-04-23 01:25 | -18.11625 | -52.47436 | 38112 ft | 430 kts | 311° |
| 2026-04-23 01:25 | -18.07623 | -52.52151 | 38117 ft | 430 kts | 311° |
| 2026-04-23 01:26 | -18.03654 | -52.56826 | 38121 ft | 429 kts | 311° |
| 2026-04-23 01:26 | -17.99682 | -52.61499 | 38124 ft | 429 kts | 311° |
| 2026-04-23 01:27 | -17.95707 | -52.66174 | 38128 ft | 430 kts | 311° |
| 2026-04-23 01:27 | -17.91736 | -52.70839 | 38130 ft | 428 kts | 311° |
| 2026-04-23 01:28 | -17.87777 | -52.75485 | 38132 ft | 429 kts | 311° |
| 2026-04-23 01:28 | -17.83768 | -52.80189 | 38134 ft | 429 kts | 311° |
| 2026-04-23 01:29 | -17.79812 | -52.84827 | 38133 ft | 429 kts | 311° |
| 2026-04-23 01:29 | -17.75809 | -52.89519 | 38132 ft | 430 kts | 311° |
| 2026-04-23 01:30 | -17.71825 | -52.94184 | 38131 ft | 430 kts | 312° |
| 2026-04-23 01:30 | -17.67861 | -52.98820 | 38122 ft | 430 kts | 312° |
| 2026-04-23 01:31 | -17.63857 | -53.03493 | 38122 ft | 430 kts | 311° |
| 2026-04-23 01:31 | -17.59875 | -53.08145 | 38117 ft | 431 kts | 311° |
| 2026-04-23 01:32 | -17.55854 | -53.12841 | 38110 ft | 430 kts | 311° |
| 2026-04-23 01:32 | -17.51858 | -53.17506 | 38103 ft | 432 kts | 312° |
| 2026-04-23 01:33 | -17.47852 | -53.22181 | 38100 ft | 432 kts | 312° |
| 2026-04-23 01:33 | -17.43839 | -53.26852 | 38097 ft | 434 kts | 312° |
| 2026-04-23 01:34 | -17.39780 | -53.31574 | 38091 ft | 436 kts | 313° |
| 2026-04-23 01:34 | -17.35702 | -53.36315 | 38088 ft | 437 kts | 312° |
| 2026-04-23 01:35 | -17.31645 | -53.41026 | 38081 ft | 434 kts | 311° |
| 2026-04-23 01:35 | -17.27639 | -53.45684 | 38081 ft | 433 kts | 312° |
| 2026-04-23 01:36 | -17.23587 | -53.50396 | 38081 ft | 437 kts | 313° |
| 2026-04-23 01:36 | -17.19501 | -53.55132 | 38082 ft | 438 kts | 312° |
| 2026-04-23 01:37 | -17.15433 | -53.59849 | 38087 ft | 437 kts | 313° |
| 2026-04-23 01:37 | -17.11458 | -53.64628 | 38085 ft | 437 kts | 309° |
| 2026-04-23 01:38 | -17.07957 | -53.69837 | 38084 ft | 438 kts | 302° |
| 2026-04-23 01:38 | -17.04973 | -53.75377 | 38086 ft | 439 kts | 299° |
| 2026-04-23 01:39 | -17.02062 | -53.80974 | 38084 ft | 440 kts | 299° |
| 2026-04-23 01:39 | -16.99122 | -53.86608 | 38081 ft | 440 kts | 299° |
| 2026-04-23 01:40 | -16.96211 | -53.92170 | 38080 ft | 439 kts | 299° |
| 2026-04-23 01:40 | -16.93273 | -53.97776 | 38073 ft | 439 kts | 299° |
| 2026-04-23 01:41 | -16.90341 | -54.03365 | 38069 ft | 438 kts | 300° |
| 2026-04-23 01:41 | -16.87420 | -54.08927 | 38058 ft | 439 kts | 300° |
| 2026-04-23 01:42 | -16.84487 | -54.14507 | 37960 ft | 439 kts | 299° |
| 2026-04-23 01:42 | -16.83027 | -54.17289 | 37223 ft | 445 kts | 300° |
| 2026-04-23 01:42 | -16.81533 | -54.20135 | 36101 ft | 452 kts | 300° |
| 2026-04-23 01:43 | -16.80012 | -54.23030 | 35154 ft | 456 kts | 300° |
| 2026-04-23 01:43 | -16.78504 | -54.25893 | 34437 ft | 454 kts | 301° |
| 2026-04-23 01:43 | -16.76990 | -54.28771 | 33746 ft | 452 kts | 301° |
| 2026-04-23 01:43 | -16.75467 | -54.31662 | 33051 ft | 450 kts | 301° |
| 2026-04-23 01:44 | -16.73970 | -54.34502 | 32418 ft | 448 kts | 302° |
| 2026-04-23 01:44 | -16.72472 | -54.37338 | 31777 ft | 446 kts | 302° |
| 2026-04-23 01:44 | -16.70997 | -54.40129 | 31342 ft | 440 kts | 301° |
| 2026-04-23 01:44 | -16.69525 | -54.42917 | 30917 ft | 435 kts | 301° |
| 2026-04-23 01:45 | -16.68079 | -54.45655 | 30491 ft | 429 kts | 301° |
| 2026-04-23 01:45 | -16.66647 | -54.48367 | 30069 ft | 424 kts | 301° |
| 2026-04-23 01:45 | -16.65238 | -54.51033 | 29643 ft | 420 kts | 301° |
| 2026-04-23 01:45 | -16.63844 | -54.53672 | 29217 ft | 415 kts | 301° |
| 2026-04-23 01:46 | -16.62450 | -54.56307 | 28784 ft | 411 kts | 301° |
| 2026-04-23 01:46 | -16.61093 | -54.58871 | 28387 ft | 407 kts | 301° |
| 2026-04-23 01:46 | -16.59723 | -54.61460 | 27960 ft | 404 kts | 301° |
| 2026-04-23 01:46 | -16.58380 | -54.63997 | 27515 ft | 402 kts | 301° |
| 2026-04-23 01:47 | -16.57045 | -54.66568 | 27035 ft | 401 kts | 301° |
| 2026-04-23 01:47 | -16.55737 | -54.69128 | 26541 ft | 401 kts | 300° |
| 2026-04-23 01:47 | -16.54432 | -54.71686 | 26027 ft | 401 kts | 300° |
| 2026-04-23 01:47 | -16.53121 | -54.74252 | 25524 ft | 400 kts | 300° |
| 2026-04-23 01:48 | -16.51817 | -54.76801 | 25024 ft | 399 kts | 300° |
| 2026-04-23 01:48 | -16.50528 | -54.79319 | 24530 ft | 399 kts | 300° |
| 2026-04-23 01:48 | -16.49225 | -54.81863 | 24035 ft | 398 kts | 300° |
| 2026-04-23 01:48 | -16.47926 | -54.84394 | 23546 ft | 397 kts | 300° |
| 2026-04-23 01:49 | -16.46627 | -54.86928 | 23047 ft | 396 kts | 299° |
| 2026-04-23 01:49 | -16.45323 | -54.89469 | 22552 ft | 396 kts | 299° |
| 2026-04-23 01:49 | -16.44031 | -54.91988 | 22032 ft | 396 kts | 299° |
| 2026-04-23 01:49 | -16.42740 | -54.94504 | 21544 ft | 395 kts | 299° |
| 2026-04-23 01:50 | -16.41442 | -54.97033 | 21084 ft | 393 kts | 299° |
| 2026-04-23 01:50 | -16.40161 | -54.99528 | 20637 ft | 391 kts | 299° |
| 2026-04-23 01:50 | -16.38889 | -55.02004 | 20202 ft | 389 kts | 299° |
| 2026-04-23 01:50 | -16.37619 | -55.04475 | 19760 ft | 386 kts | 299° |
| 2026-04-23 01:51 | -16.36365 | -55.06915 | 19328 ft | 384 kts | 299° |
| 2026-04-23 01:51 | -16.35108 | -55.09359 | 18900 ft | 381 kts | 299° |
| 2026-04-23 01:51 | -16.33867 | -55.11769 | 18492 ft | 378 kts | 299° |
| 2026-04-23 01:51 | -16.32636 | -55.14159 | 18072 ft | 375 kts | 299° |
| 2026-04-23 01:52 | -16.31403 | -55.16552 | 17648 ft | 373 kts | 299° |
| 2026-04-23 01:52 | -16.30183 | -55.18919 | 17234 ft | 370 kts | 299° |
| 2026-04-23 01:52 | -16.28966 | -55.21281 | 16817 ft | 367 kts | 299° |
| 2026-04-23 01:52 | -16.27772 | -55.23600 | 16395 ft | 365 kts | 299° |
| 2026-04-23 01:53 | -16.26580 | -55.25910 | 15974 ft | 363 kts | 299° |
| 2026-04-23 01:53 | -16.25385 | -55.28227 | 15551 ft | 361 kts | 299° |
| 2026-04-23 01:53 | -16.24205 | -55.30512 | 15129 ft | 359 kts | 299° |
| 2026-04-23 01:53 | -16.23032 | -55.32781 | 14714 ft | 357 kts | 299° |
| 2026-04-23 01:54 | -16.21853 | -55.35063 | 14294 ft | 354 kts | 299° |
| 2026-04-23 01:54 | -16.20695 | -55.37305 | 13876 ft | 353 kts | 299° |
| 2026-04-23 01:54 | -16.19539 | -55.39540 | 13453 ft | 351 kts | 299° |
| 2026-04-23 01:54 | -16.18397 | -55.41751 | 13041 ft | 349 kts | 299° |
| 2026-04-23 01:55 | -16.17253 | -55.43963 | 12633 ft | 346 kts | 299° |
| 2026-04-23 01:55 | -16.16105 | -55.46183 | 12215 ft | 345 kts | 299° |
| 2026-04-23 01:55 | -16.14984 | -55.48350 | 11808 ft | 343 kts | 299° |
| 2026-04-23 01:55 | -16.13854 | -55.50534 | 11385 ft | 341 kts | 299° |
| 2026-04-23 01:56 | -16.12735 | -55.52695 | 10952 ft | 340 kts | 298° |
| 2026-04-23 01:56 | -16.11616 | -55.54856 | 10520 ft | 339 kts | 298° |
| 2026-04-23 01:56 | -16.10501 | -55.57009 | 10151 ft | 335 kts | 298° |
| 2026-04-23 01:56 | -16.09415 | -55.59104 | 9949 ft | 325 kts | 298° |
| 2026-04-23 01:57 | -16.08348 | -55.61164 | 9686 ft | 318 kts | 298° |
| 2026-04-23 01:57 | -16.07305 | -55.63176 | 9328 ft | 316 kts | 299° |
| 2026-04-23 01:57 | -16.06271 | -55.65168 | 8985 ft | 312 kts | 299° |
| 2026-04-23 01:57 | -16.05253 | -55.67128 | 8678 ft | 307 kts | 299° |
| 2026-04-23 01:58 | -16.04238 | -55.69087 | 8268 ft | 307 kts | 299° |
| 2026-04-23 01:58 | -16.03229 | -55.71029 | 7859 ft | 306 kts | 299° |
| 2026-04-23 01:58 | -16.02213 | -55.72986 | 7496 ft | 303 kts | 299° |
| 2026-04-23 01:58 | -16.01231 | -55.74878 | 7148 ft | 301 kts | 299° |
| 2026-04-23 01:59 | -16.00239 | -55.76788 | 6793 ft | 298 kts | 299° |
| 2026-04-23 01:59 | -15.99260 | -55.78673 | 6459 ft | 295 kts | 299° |
| 2026-04-23 01:59 | -15.98282 | -55.80553 | 6113 ft | 293 kts | 299° |
| 2026-04-23 01:59 | -15.97318 | -55.82410 | 5780 ft | 290 kts | 299° |
| 2026-04-23 02:00 | -15.96375 | -55.84226 | 5452 ft | 288 kts | 299° |
| 2026-04-23 02:00 | -15.95425 | -55.86052 | 5108 ft | 286 kts | 299° |
| 2026-04-23 02:00 | -15.94475 | -55.87880 | 4771 ft | 284 kts | 300° |
| 2026-04-23 02:00 | -15.93554 | -55.89650 | 4453 ft | 281 kts | 300° |
| 2026-04-23 02:01 | -15.92619 | -55.91446 | 4146 ft | 278 kts | 300° |
| 2026-04-23 02:01 | -15.91727 | -55.93160 | 4100 ft | 263 kts | 300° |
| 2026-04-23 02:01 | -15.90877 | -55.94794 | 4077 ft | 249 kts | 300° |
| 2026-04-23 02:01 | -15.90078 | -55.96328 | 4042 ft | 237 kts | 300° |
| 2026-04-23 02:02 | -15.89288 | -55.97845 | 4004 ft | 238 kts | 300° |
| 2026-04-23 02:02 | -15.88406 | -55.99299 | 3856 ft | 235 kts | 317° |
| 2026-04-23 02:02 | -15.87068 | -56.00188 | 3660 ft | 227 kts | 337° |
| 2026-04-23 02:02 | -15.85644 | -56.00893 | 3444 ft | 223 kts | 336° |
| 2026-04-23 02:03 | -15.84276 | -56.01588 | 3238 ft | 219 kts | 336° |
| 2026-04-23 02:03 | -15.82913 | -56.02299 | 2989 ft | 214 kts | 335° |
| 2026-04-23 02:03 | -15.81600 | -56.02994 | 2686 ft | 208 kts | 335° |
| 2026-04-23 02:03 | -15.80331 | -56.03669 | 2472 ft | 199 kts | 335° |
| 2026-04-23 02:04 | -15.79174 | -56.04288 | 2475 ft | 171 kts | 335° |
| 2026-04-23 02:04 | -15.78166 | -56.04827 | 2470 ft | 153 kts | 336° |
| 2026-04-23 02:04 | -15.77249 | -56.05316 | 2465 ft | 145 kts | 337° |
| 2026-04-23 02:04 | -15.76353 | -56.05790 | 2486 ft | 144 kts | 336° |
| 2026-04-23 02:05 | -15.75456 | -56.06266 | 2499 ft | 144 kts | 336° |
| 2026-04-23 02:05 | -15.74562 | -56.06740 | 2355 ft | 144 kts | 336° |
| 2026-04-23 02:05 | -15.73675 | -56.07213 | 2171 ft | 143 kts | 336° |
| 2026-04-23 02:05 | -15.72781 | -56.07688 | 1986 ft | 143 kts | 336° |
| 2026-04-23 02:06 | -15.71895 | -56.08160 | 1801 ft | 142 kts | 336° |
| 2026-04-23 02:06 | -15.71024 | -56.08624 | 1621 ft | 142 kts | 336° |
| 2026-04-23 02:06 | -15.70140 | -56.09094 | 1437 ft | 141 kts | 335° |
| 2026-04-23 02:06 | -15.69271 | -56.09557 | 1257 ft | 140 kts | 335° |
| 2026-04-23 02:07 | -15.68398 | -56.10020 | 1075 ft | 138 kts | 335° |
| 2026-04-23 02:07 | -15.67548 | -56.10473 | 899 ft | 137 kts | 335° |
| 2026-04-23 02:07 | -15.66701 | -56.10918 | 732 ft | 136 kts | 335° |
| 2026-04-23 02:07 | -15.65852 | -56.11370 | 598 ft | 130 kts | 332° |
| 2026-04-23 02:08 | -15.65313 | -56.11660 | 603 ft | 43 kts | 334° |
| 2026-04-23 02:08 | -15.65203 | -56.11730 | 606 ft | 9 kts | 292° |
| 2026-04-23 02:08 | -15.65213 | -56.11781 | 606 ft | 6 kts | 243° |
| 2026-04-23 02:08 | -15.65221 | -56.11829 | 607 ft | 7 kts | 300° |
| 2026-04-23 02:09 | -15.65182 | -56.11859 | 608 ft | 6 kts | 332° |
| 2026-04-23 02:09 | -15.65137 | -56.11882 | 609 ft | 7 kts | 334° |
| 2026-04-23 02:09 | -15.65083 | -56.11910 | 610 ft | 8 kts | 331° |
| 2026-04-23 02:09 | -15.65083 | -56.11948 | 611 ft | 7 kts | 245° |
| 2026-04-23 02:10 | -15.65091 | -56.11964 | 611 ft | 0 kts | 244° |